Time;durP1;ratioP1;P1;durP2;ratioP2;P2;SDS_P1;SDS_P2;PMS_P1;PMS_P2;Temp;Humidity;BMP_temperature;BMP_pressure;BME280_temperature;BME280_humidity;BME280_pressure;Samples;Min_cycle;Max_cycle;Signal;HPM_P1;HPM_P2
2024/01/22 00:01:43;;;;;;;2.75;2.35;;;;;;;;;;4977883;28;20054;-81
2024/01/22 00:04:10;;;;;;;4.30;2.35;;;;;;;;;;4979887;28;20066;-83
2024/01/22 00:06:38;;;;;;;3.40;2.33;;;;;;;;;;4965727;28;20138;-82
2024/01/22 00:09:05;;;;;;;6.53;2.30;;;;;;;;;;4982742;28;20093;-82
2024/01/22 00:11:32;;;;;;;4.28;2.55;;;;;;;;;;4965616;28;20056;-82
2024/01/22 00:14:00;;;;;;;5.05;2.60;;;;;;;;;;4983147;28;20047;-82
2024/01/22 00:16:26;;;;;;;4.07;2.55;;;;;;;;;;4981085;28;20047;-82
2024/01/22 00:18:53;;;;;;;5.13;3.05;;;;;;;;;;4965234;28;20449;-81
2024/01/22 00:21:20;;;;;;;4.03;2.28;;;;;;;;;;4968323;28;20042;-81
2024/01/22 00:23:47;;;;;;;4.22;2.13;;;;;;;;;;4979564;28;20058;-81
2024/01/22 00:26:15;;;;;;;3.92;2.40;;;;;;;;;;4974252;28;20092;-81
2024/01/22 00:28:42;;;;;;;5.00;2.72;;;;;;;;;;4966273;28;20081;-80
2024/01/22 00:31:09;;;;;;;4.45;2.70;;;;;;;;;;4966059;28;20046;-80
2024/01/22 00:33:35;;;;;;;4.63;2.88;;;;;;;;;;4965981;28;20054;-81
2024/01/22 00:36:03;;;;;;;3.78;2.28;;;;;;;;;;4963462;28;20054;-81
2024/01/22 00:38:30;;;;;;;4.90;2.70;;;;;;;;;;4960455;28;20058;-81
2024/01/22 00:40:57;;;;;;;6.40;2.92;;;;;;;;;;4966962;28;20050;-81
2024/01/22 00:43:24;;;;;;;4.80;2.65;;;;;;;;;;4988071;28;20081;-81
2024/01/22 00:45:50;;;;;;;3.47;1.92;;;;;;;;;;4994895;28;20061;-82
2024/01/22 00:48:17;;;;;;;5.30;3.10;;;;;;;;;;4999260;28;20035;-80
2024/01/22 00:50:44;;;;;;;4.85;2.38;;;;;;;;;;4984937;28;20034;-79
2024/01/22 00:53:11;;;;;;;3.67;2.38;;;;;;;;;;4999530;28;20062;-80
2024/01/22 00:55:38;;;;;;;6.00;2.30;;;;;;;;;;5020813;28;20038;-78
2024/01/22 00:58:05;;;;;;;3.38;2.38;;;;;;;;;;5019496;28;20035;-79
2024/01/22 01:00:31;;;;;;;3.03;1.90;;;;;;;;;;4989295;28;20034;-80
2024/01/22 01:02:58;;;;;;;5.00;1.92;;;;;;;;;;5020503;28;20057;-81
2024/01/22 01:05:25;;;;;;;3.70;2.38;;;;;;;;;;4988599;28;20673;-81
2024/01/22 01:07:52;;;;;;;3.80;2.20;;;;;;;;;;4972619;28;20130;-81
2024/01/22 01:10:18;;;;;;;6.22;2.20;;;;;;;;;;4974179;28;20055;-84
2024/01/22 01:12:45;;;;;;;4.90;2.05;;;;;;;;;;4972032;28;20514;-80
2024/01/22 01:15:12;;;;;;;8.90;2.42;;;;;;;;;;4973634;28;20058;-78
2024/01/22 01:17:39;;;;;;;3.95;2.20;;;;;;;;;;4990443;28;20058;-79
2024/01/22 01:20:06;;;;;;;4.32;2.17;;;;;;;;;;4973598;28;20055;-79
2024/01/22 01:22:33;;;;;;;4.03;2.17;;;;;;;;;;4995708;28;20053;-79
2024/01/22 01:25:00;;;;;;;3.47;2.10;;;;;;;;;;4962357;28;20086;-79
2024/01/22 01:27:26;;;;;;;4.03;2.10;;;;;;;;;;4980847;28;20104;-79
2024/01/22 01:29:53;;;;;;;4.05;2.42;;;;;;;;;;4965011;28;20126;-78
2024/01/22 01:32:20;;;;;;;3.35;2.10;;;;;;;;;;4977585;28;20086;-78
2024/01/22 01:34:47;;;;;;;3.58;2.13;;;;;;;;;;5001788;28;20058;-79
2024/01/22 01:37:14;;;;;;;4.15;2.65;;;;;;;;;;4992854;28;20086;-78
2024/01/22 01:39:40;;;;;;;4.68;3.13;;;;;;;;;;4958529;28;20082;-78
2024/01/22 01:42:07;;;;;;;4.18;2.45;;;;;;;;;;4974115;28;20396;-78
2024/01/22 01:44:37;;;;;;;5.85;2.97;;;;;;;;;;4982361;28;20073;-78
2024/01/22 01:47:05;;;;;;;5.97;3.13;;;;;;;;;;4991077;28;20592;-79
2024/01/22 01:49:32;;;;;;;3.80;2.50;;;;;;;;;;4973554;28;20054;-79
2024/01/22 01:51:59;;;;;;;3.78;2.42;;;;;;;;;;4975515;28;20065;-79
2024/01/22 01:54:25;;;;;;;4.07;2.65;;;;;;;;;;4970950;28;20054;-79
2024/01/22 01:56:52;;;;;;;4.70;2.40;;;;;;;;;;4960493;28;20062;-79
2024/01/22 01:59:19;;;;;;;2.95;2.10;;;;;;;;;;4972273;28;20133;-79
2024/01/22 02:01:46;;;;;;;3.38;1.80;;;;;;;;;;4959090;28;20502;-79
2024/01/22 02:04:13;;;;;;;5.60;2.42;;;;;;;;;;4974568;28;20059;-79
2024/01/22 02:06:40;;;;;;;5.45;1.98;;;;;;;;;;4991176;28;20062;-83
2024/01/22 02:09:07;;;;;;;6.05;2.42;;;;;;;;;;4980163;28;20120;-82
2024/01/22 02:11:34;;;;;;;3.65;2.58;;;;;;;;;;5002118;28;20121;-82
2024/01/22 02:14:01;;;;;;;4.78;2.40;;;;;;;;;;4999559;28;20063;-83
2024/01/22 02:16:28;;;;;;;3.22;2.22;;;;;;;;;;4958530;28;20059;-83
2024/01/22 02:18:54;;;;;;;5.32;2.47;;;;;;;;;;4972260;28;20054;-82
2024/01/22 02:21:22;;;;;;;3.75;2.03;;;;;;;;;;4974631;28;20046;-83
2024/01/22 02:23:48;;;;;;;5.45;2.17;;;;;;;;;;4956385;28;20055;-83
2024/01/22 02:26:15;;;;;;;4.20;2.42;;;;;;;;;;4959255;28;20553;-83
2024/01/22 02:28:42;;;;;;;3.15;2.17;;;;;;;;;;4976851;28;20065;-82
2024/01/22 02:31:10;;;;;;;4.32;2.20;;;;;;;;;;5008457;28;20482;-82
2024/01/22 02:33:37;;;;;;;4.45;2.20;;;;;;;;;;4973513;28;20055;-83
2024/01/22 02:36:04;;;;;;;3.72;1.95;;;;;;;;;;4974781;28;20078;-80
2024/01/22 02:38:31;;;;;;;3.65;2.28;;;;;;;;;;4978268;28;20054;-80
2024/01/22 02:40:58;;;;;;;3.42;1.95;;;;;;;;;;5009400;28;20045;-80
2024/01/22 02:43:25;;;;;;;4.57;2.10;;;;;;;;;;4978147;28;20466;-80
2024/01/22 02:45:51;;;;;;;4.07;2.30;;;;;;;;;;5010458;28;20062;-80
2024/01/22 02:48:18;;;;;;;3.72;2.55;;;;;;;;;;4978254;28;20113;-81
2024/01/22 02:50:45;;;;;;;2.92;1.88;;;;;;;;;;5014327;28;20046;-81
2024/01/22 02:53:12;;;;;;;3.20;1.75;;;;;;;;;;4984139;28;20148;-82
2024/01/22 02:55:39;;;;;;;3.40;2.28;;;;;;;;;;5002418;28;20100;-81
2024/01/22 02:58:06;;;;;;;4.35;2.30;;;;;;;;;;4968597;28;20110;-82
2024/01/22 03:00:33;;;;;;;3.00;2.05;;;;;;;;;;4969988;28;20054;-82
2024/01/22 03:03:00;;;;;;;5.18;2.92;;;;;;;;;;4996782;28;20062;-82
2024/01/22 03:05:26;;;;;;;3.42;1.98;;;;;;;;;;4990016;28;20078;-82
2024/01/22 03:07:53;;;;;;;3.33;2.20;;;;;;;;;;5005844;28;20058;-81
2024/01/22 03:10:20;;;;;;;4.57;2.67;;;;;;;;;;4990554;28;20058;-81
2024/01/22 03:12:47;;;;;;;5.55;3.13;;;;;;;;;;5020296;28;20094;-82
2024/01/22 03:15:14;;;;;;;8.02;3.10;;;;;;;;;;4989943;28;20050;-80
2024/01/22 03:17:41;;;;;;;4.82;3.35;;;;;;;;;;4988545;28;20054;-80
2024/01/22 03:20:08;;;;;;;4.85;3.13;;;;;;;;;;5004548;28;20081;-79
2024/01/22 03:22:35;;;;;;;5.57;2.97;;;;;;;;;;4985230;28;20050;-79
2024/01/22 03:25:02;;;;;;;4.55;2.85;;;;;;;;;;5002890;28;20054;-79
2024/01/22 03:27:29;;;;;;;6.55;2.95;;;;;;;;;;4984020;28;20074;-82
2024/01/22 03:29:56;;;;;;;2.97;2.42;;;;;;;;;;4981297;28;20109;-82
2024/01/22 03:32:23;;;;;;;4.07;2.90;;;;;;;;;;4995584;28;20488;-83
2024/01/22 03:34:50;;;;;;;4.07;3.00;;;;;;;;;;4997942;28;20054;-81
2024/01/22 03:37:16;;;;;;;3.33;2.85;;;;;;;;;;4996547;28;20050;-82
2024/01/22 03:39:43;;;;;;;3.55;2.78;;;;;;;;;;4980275;28;20112;-82
2024/01/22 03:42:11;;;;;;;6.13;2.95;;;;;;;;;;5000073;28;20077;-82
2024/01/22 03:44:39;;;;;;;4.80;2.72;;;;;;;;;;5005451;28;20078;-82
2024/01/22 03:47:06;;;;;;;3.25;2.50;;;;;;;;;;5006954;28;20054;-80
2024/01/22 03:49:33;;;;;;;5.28;2.40;;;;;;;;;;4987611;28;20142;-81
2024/01/22 03:52:00;;;;;;;4.78;3.00;;;;;;;;;;4988417;28;20109;-80
2024/01/22 03:54:26;;;;;;;4.65;2.58;;;;;;;;;;4970774;28;20122;-78
2024/01/22 03:56:53;;;;;;;3.42;2.38;;;;;;;;;;5001218;28;20058;-80
2024/01/22 03:59:21;;;;;;;4.43;2.75;;;;;;;;;;4969595;28;20077;-81
2024/01/22 04:01:48;;;;;;;4.05;2.40;;;;;;;;;;4969768;28;20054;-80
2024/01/22 04:04:15;;;;;;;2.88;2.58;;;;;;;;;;5000671;28;20085;-80
2024/01/22 04:06:41;;;;;;;5.65;2.40;;;;;;;;;;5003730;28;20050;-80
2024/01/22 04:09:11;;;;;;;4.25;2.42;;;;;;;;;;4986267;28;20054;-79
2024/01/22 04:11:38;;;;;;;5.40;2.38;;;;;;;;;;5000568;28;20050;-79
2024/01/22 04:14:05;;;;;;;4.63;3.05;;;;;;;;;;5015463;28;20068;-79
2024/01/22 04:16:32;;;;;;;3.65;2.05;;;;;;;;;;4967343;28;20050;-80
2024/01/22 04:18:59;;;;;;;3.03;2.10;;;;;;;;;;4965556;28;20054;-79
2024/01/22 04:21:27;;;;;;;3.38;2.65;;;;;;;;;;4976435;28;20051;-79
2024/01/22 04:23:54;;;;;;;3.47;2.20;;;;;;;;;;4980970;28;20054;-79
2024/01/22 04:26:21;;;;;;;4.15;2.08;;;;;;;;;;4982464;28;20077;-79
2024/01/22 04:28:48;;;;;;;3.40;1.95;;;;;;;;;;4997818;28;20054;-79
2024/01/22 04:31:15;;;;;;;2.90;1.98;;;;;;;;;;4998831;28;20059;-79
2024/01/22 04:33:45;;;;;;;2.60;2.15;;;;;;;;;;4995410;28;20101;-79
2024/01/22 04:36:12;;;;;;;3.30;2.15;;;;;;;;;;4999954;28;20417;-81
2024/01/22 04:38:38;;;;;;;2.67;2.00;;;;;;;;;;4968394;28;20054;-80
2024/01/22 04:41:05;;;;;;;4.22;2.33;;;;;;;;;;4967366;28;20046;-82
2024/01/22 04:43:32;;;;;;;2.03;1.67;;;;;;;;;;4985686;28;20046;-82
2024/01/22 04:45:59;;;;;;;3.83;1.98;;;;;;;;;;5001315;28;20082;-81
2024/01/22 04:48:26;;;;;;;3.47;1.95;;;;;;;;;;4982084;28;20055;-82
2024/01/22 04:50:53;;;;;;;4.57;2.10;;;;;;;;;;4998020;28;20153;-81
2024/01/22 04:53:20;;;;;;;2.22;2.03;;;;;;;;;;4951498;28;20058;-82
2024/01/22 04:55:47;;;;;;;4.03;2.13;;;;;;;;;;4973255;28;20046;-81
2024/01/22 04:58:13;;;;;;;3.50;2.30;;;;;;;;;;5015775;28;20062;-80
2024/01/22 05:00:40;;;;;;;4.38;2.05;;;;;;;;;;4966990;28;20073;-81
2024/01/22 05:03:07;;;;;;;6.00;2.33;;;;;;;;;;4966752;28;20066;-81
2024/01/22 05:05:34;;;;;;;3.90;2.47;;;;;;;;;;4999808;28;20062;-81
2024/01/22 05:08:01;;;;;;;4.82;2.30;;;;;;;;;;4996113;28;20053;-82
2024/01/22 05:10:28;;;;;;;3.47;2.13;;;;;;;;;;4963626;28;20059;-82
2024/01/22 05:12:55;;;;;;;2.22;1.75;;;;;;;;;;4981037;28;20091;-83
2024/01/22 05:15:22;;;;;;;4.78;2.55;;;;;;;;;;4964757;28;20120;-84
2024/01/22 05:17:49;;;;;;;3.40;2.17;;;;;;;;;;4984955;28;20086;-83
2024/01/22 05:20:16;;;;;;;5.30;2.47;;;;;;;;;;4981732;28;20081;-81
2024/01/22 05:22:45;;;;;;;4.65;1.83;;;;;;;;;;4987409;28;20057;-80
2024/01/22 05:25:12;;;;;;;2.60;2.03;;;;;;;;;;4995692;28;20059;-80
2024/01/22 05:27:43;;;;;;;5.47;2.15;;;;;;;;;;4982192;28;20058;-77
2024/01/22 05:30:10;;;;;;;3.45;1.67;;;;;;;;;;4977027;28;20050;-80
2024/01/22 05:32:37;;;;;;;3.83;2.03;;;;;;;;;;4970346;28;20610;-80
2024/01/22 05:35:05;;;;;;;2.47;1.73;;;;;;;;;;4964463;28;20138;-82
2024/01/22 05:37:32;;;;;;;4.60;1.80;;;;;;;;;;4984799;28;20105;-82
2024/01/22 05:39:59;;;;;;;3.08;1.95;;;;;;;;;;4999326;28;20124;-81
2024/01/22 05:42:25;;;;;;;3.42;2.22;;;;;;;;;;5000510;28;20053;-81
2024/01/22 05:44:52;;;;;;;3.90;1.70;;;;;;;;;;5002317;28;20069;-81
2024/01/22 05:47:19;;;;;;;2.55;1.67;;;;;;;;;;4984341;28;20089;-82
2024/01/22 05:49:46;;;;;;;3.00;1.90;;;;;;;;;;4981737;28;20060;-81
2024/01/22 05:52:14;;;;;;;3.83;1.50;;;;;;;;;;4975754;28;20558;-83
2024/01/22 05:54:41;;;;;;;2.85;1.90;;;;;;;;;;4969178;28;20065;-83
2024/01/22 05:57:09;;;;;;;2.78;1.92;;;;;;;;;;4997031;28;20510;-84
2024/01/22 05:59:38;;;;;;;5.78;1.90;;;;;;;;;;4978362;28;20054;-83
2024/01/22 06:02:05;;;;;;;3.20;1.90;;;;;;;;;;4996553;28;20054;-83
2024/01/22 06:04:32;;;;;;;2.53;1.70;;;;;;;;;;4981796;28;20114;-83
2024/01/22 06:06:59;;;;;;;3.55;2.00;;;;;;;;;;4998728;28;20058;-83
2024/01/22 06:09:31;;;;;;;2.13;1.67;;;;;;;;;;4992840;28;20136;-82
2024/01/22 06:11:57;;;;;;;4.47;2.28;;;;;;;;;;4998806;28;20046;-81
2024/01/22 06:14:24;;;;;;;2.38;1.63;;;;;;;;;;4998202;28;20069;-83
2024/01/22 06:16:52;;;;;;;5.43;2.45;;;;;;;;;;4976807;28;20051;-82
2024/01/22 06:19:19;;;;;;;3.60;1.77;;;;;;;;;;4983837;28;20113;-82
2024/01/22 06:21:46;;;;;;;2.60;1.70;;;;;;;;;;4981795;28;20051;-83
2024/01/22 06:24:12;;;;;;;3.03;2.03;;;;;;;;;;4965714;28;20073;-83
2024/01/22 06:26:39;;;;;;;2.58;1.67;;;;;;;;;;4965924;28;20128;-80
2024/01/22 06:29:11;;;;;;;1.80;1.58;;;;;;;;;;4983174;28;20047;-80
2024/01/22 06:31:37;;;;;;;2.08;1.45;;;;;;;;;;5003491;28;20096;-80
2024/01/22 06:34:04;;;;;;;3.40;1.77;;;;;;;;;;4972346;28;20061;-80
2024/01/22 06:36:31;;;;;;;3.08;1.33;;;;;;;;;;4969945;28;20117;-82
2024/01/22 06:38:58;;;;;;;3.08;1.90;;;;;;;;;;4975704;28;20086;-82
2024/01/22 06:41:25;;;;;;;2.75;1.67;;;;;;;;;;4969394;28;20490;-81
2024/01/22 06:43:52;;;;;;;6.05;1.92;;;;;;;;;;4970383;28;20104;-80
2024/01/22 06:46:19;;;;;;;4.07;1.52;;;;;;;;;;5000910;28;20065;-81
2024/01/22 06:48:45;;;;;;;1.85;1.70;;;;;;;;;;4974168;28;20060;-79
2024/01/22 06:51:13;;;;;;;2.47;1.58;;;;;;;;;;4996895;28;20695;-83
2024/01/22 06:53:39;;;;;;;2.58;1.48;;;;;;;;;;4960662;28;20081;-80
2024/01/22 06:56:07;;;;;;;2.80;1.90;;;;;;;;;;4976781;28;20054;-84
2024/01/22 06:58:34;;;;;;;2.20;1.67;;;;;;;;;;4968159;28;20422;-81
2024/01/22 07:01:01;;;;;;;1.90;1.70;;;;;;;;;;4976960;28;20098;-79
2024/01/22 07:03:28;;;;;;;2.50;1.73;;;;;;;;;;4971997;28;20058;-82
2024/01/22 07:05:55;;;;;;;5.35;2.10;;;;;;;;;;4964913;28;20090;-84
2024/01/22 07:08:22;;;;;;;4.63;2.10;;;;;;;;;;4976990;28;20050;-85
2024/01/22 07:10:49;;;;;;;3.50;1.92;;;;;;;;;;4987713;28;20132;-80
2024/01/22 07:13:15;;;;;;;1.90;1.70;;;;;;;;;;4994787;28;20515;-81
2024/01/22 07:15:42;;;;;;;2.15;1.38;;;;;;;;;;4977808;28;20417;-79
2024/01/22 07:18:09;;;;;;;6.05;1.88;;;;;;;;;;4976032;28;20085;-79
2024/01/22 07:20:36;;;;;;;2.42;1.55;;;;;;;;;;4958296;28;20078;-79
2024/01/22 07:23:03;;;;;;;2.50;1.67;;;;;;;;;;4975878;28;20061;-80
2024/01/22 07:25:34;;;;;;;2.35;1.60;;;;;;;;;;4989506;28;20199;-80
2024/01/22 07:28:01;;;;;;;2.38;1.70;;;;;;;;;;4978867;28;20055;-80
2024/01/22 07:30:28;;;;;;;2.83;1.63;;;;;;;;;;4956308;28;20631;-80
2024/01/22 07:32:55;;;;;;;2.58;1.55;;;;;;;;;;4978128;28;20544;-77
2024/01/22 07:35:22;;;;;;;2.72;1.40;;;;;;;;;;4982883;28;20050;-80
2024/01/22 07:37:48;;;;;;;2.95;1.60;;;;;;;;;;4983294;28;20055;-78
2024/01/22 07:40:15;;;;;;;1.63;1.40;;;;;;;;;;4975134;28;20451;-78
2024/01/22 07:42:43;;;;;;;2.22;1.67;;;;;;;;;;4967777;28;20046;-80
2024/01/22 07:45:10;;;;;;;4.32;2.03;;;;;;;;;;4977963;28;20050;-80
2024/01/22 07:47:42;;;;;;;2.45;1.55;;;;;;;;;;4993183;28;20538;-80
2024/01/22 07:50:14;;;;;;;2.20;1.55;;;;;;;;;;4971485;28;20056;-81
2024/01/22 07:52:41;;;;;;;4.68;1.58;;;;;;;;;;4968973;28;20145;-79
2024/01/22 07:55:16;;;;;;;4.50;1.30;;;;;;;;;;4971882;28;20114;-79
2024/01/22 07:57:43;;;;;;;2.80;1.55;;;;;;;;;;4983355;28;20135;-83
2024/01/22 08:00:13;;;;;;;2.72;1.30;;;;;;;;;;4979551;28;20117;-77
2024/01/22 08:02:41;;;;;;;1.63;1.17;;;;;;;;;;4968157;28;20069;-82
2024/01/22 08:05:12;;;;;;;4.78;1.92;;;;;;;;;;4981088;28;20109;-84
2024/01/22 08:07:42;;;;;;;5.32;2.65;;;;;;;;;;4964389;28;20058;-83
2024/01/22 08:10:09;;;;;;;3.42;1.67;;;;;;;;;;4983912;28;20130;-82
2024/01/22 08:12:36;;;;;;;6.03;1.42;;;;;;;;;;4992267;28;20054;-81
2024/01/22 08:15:03;;;;;;;2.50;1.30;;;;;;;;;;4982024;28;20501;-79
2024/01/22 08:17:31;;;;;;;4.38;1.20;;;;;;;;;;4978228;28;20055;-80
2024/01/22 08:19:57;;;;;;;2.13;1.13;;;;;;;;;;5001838;28;20113;-80
2024/01/22 08:22:24;;;;;;;2.40;1.30;;;;;;;;;;4983202;28;20053;-78
2024/01/22 08:24:52;;;;;;;3.78;1.90;;;;;;;;;;4995909;28;20062;-80
2024/01/22 08:27:19;;;;;;;4.47;1.67;;;;;;;;;;4988676;28;20081;-80
2024/01/22 08:29:47;;;;;;;4.45;1.58;;;;;;;;;;4989157;28;20046;-79
2024/01/22 08:32:13;;;;;;;1.48;1.10;;;;;;;;;;4968368;28;20050;-78
2024/01/22 08:34:41;;;;;;;2.35;1.48;;;;;;;;;;4988171;28;20056;-78
2024/01/22 08:37:08;;;;;;;1.75;0.90;;;;;;;;;;4998682;28;20054;-79
2024/01/22 08:39:38;;;;;;;2.10;1.10;;;;;;;;;;5002477;28;20061;-79
2024/01/22 08:42:05;;;;;;;2.08;1.08;;;;;;;;;;4988653;28;20054;-79
2024/01/22 08:44:32;;;;;;;1.73;0.98;;;;;;;;;;4986894;28;20112;-80
2024/01/22 08:46:59;;;;;;;1.58;0.90;;;;;;;;;;5019504;28;20054;-80
2024/01/22 08:49:26;;;;;;;1.73;1.40;;;;;;;;;;4983264;28;20050;-79
2024/01/22 08:51:52;;;;;;;3.85;1.83;;;;;;;;;;5002775;28;20050;-80
2024/01/22 08:54:19;;;;;;;2.58;1.88;;;;;;;;;;4970628;28;20561;-80
2024/01/22 08:56:46;;;;;;;3.97;2.20;;;;;;;;;;4996844;28;20407;-79
2024/01/22 08:59:14;;;;;;;3.05;1.45;;;;;;;;;;5001362;28;20114;-79
2024/01/22 09:01:42;;;;;;;3.38;1.17;;;;;;;;;;4986377;28;20062;-79
2024/01/22 09:04:09;;;;;;;0.55;0.52;;;;;;;;;;4969778;28;20066;-80
2024/01/22 09:06:36;;;;;;;2.53;0.80;;;;;;;;;;5019654;28;20054;-79
2024/01/22 09:09:05;;;;;;;1.30;1.00;;;;;;;;;;5004191;28;20058;-80
2024/01/22 09:11:32;;;;;;;1.65;0.90;;;;;;;;;;4973221;28;20090;-79
2024/01/22 09:13:59;;;;;;;3.05;0.95;;;;;;;;;;5008383;28;20085;-82
2024/01/22 09:16:27;;;;;;;2.97;0.70;;;;;;;;;;4998796;28;20050;-80
2024/01/22 09:18:57;;;;;;;2.90;1.13;;;;;;;;;;5002284;28;20058;-78
2024/01/22 09:21:24;;;;;;;2.38;0.68;;;;;;;;;;4968766;28;20055;-79
2024/01/22 09:23:51;;;;;;;2.50;0.70;;;;;;;;;;5000673;28;20082;-79
2024/01/22 09:26:19;;;;;;;2.22;0.80;;;;;;;;;;4994052;28;20065;-79
2024/01/22 09:28:45;;;;;;;1.08;0.75;;;;;;;;;;4987831;28;20061;-80
2024/01/22 09:31:12;;;;;;;2.40;0.90;;;;;;;;;;4986540;28;20100;-79
2024/01/22 09:33:39;;;;;;;3.35;0.90;;;;;;;;;;4986903;28;20046;-80
2024/01/22 09:36:07;;;;;;;1.83;1.00;;;;;;;;;;5002181;28;20109;-78
2024/01/22 09:38:34;;;;;;;1.48;0.88;;;;;;;;;;4967757;28;20078;-79
2024/01/22 09:41:01;;;;;;;3.40;1.20;;;;;;;;;;5003362;28;20274;-80
2024/01/22 09:43:27;;;;;;;1.75;1.40;;;;;;;;;;5002430;28;20046;-80
2024/01/22 09:45:54;;;;;;;3.60;1.73;;;;;;;;;;5000696;28;20074;-80
2024/01/22 09:48:21;;;;;;;1.70;1.35;;;;;;;;;;4983950;28;20054;-81
2024/01/22 09:50:50;;;;;;;2.15;1.30;;;;;;;;;;4968476;28;20278;-80
2024/01/22 09:53:17;;;;;;;1.83;1.40;;;;;;;;;;4970348;28;20050;-80
2024/01/22 09:55:44;;;;;;;2.63;1.60;;;;;;;;;;5017186;28;20153;-80
2024/01/22 09:58:13;;;;;;;5.95;3.78;;;;;;;;;;4995929;28;20086;-80
2024/01/22 10:00:40;;;;;;;2.42;1.73;;;;;;;;;;4969249;28;20050;-80
2024/01/22 10:03:07;;;;;;;2.00;1.50;;;;;;;;;;5001083;28;20406;-80
2024/01/22 10:05:35;;;;;;;1.48;1.10;;;;;;;;;;5000080;28;20390;-80
2024/01/22 10:08:01;;;;;;;2.03;1.30;;;;;;;;;;4999813;28;20069;-81
2024/01/22 10:10:28;;;;;;;1.73;1.00;;;;;;;;;;4986736;28;20058;-81
2024/01/22 10:13:04;;;;;;;2.00;0.93;;;;;;;;;;5002302;28;20058;-80
2024/01/22 10:15:33;;;;;;;1.85;0.85;;;;;;;;;;5015831;28;20085;-79
2024/01/22 10:18:14;;;;;;;3.47;1.20;;;;;;;;;;4986620;28;20050;-80
2024/01/22 10:20:43;;;;;;;1.45;1.05;;;;;;;;;;4968024;28;20054;-80
2024/01/22 10:23:12;;;;;;;1.48;1.00;;;;;;;;;;4970511;28;20067;-79
2024/01/22 10:25:39;;;;;;;1.90;1.20;;;;;;;;;;4970863;28;20050;-81
2024/01/22 10:28:11;;;;;;;1.52;0.90;;;;;;;;;;4967561;28;20105;-79
2024/01/22 10:30:39;;;;;;;1.42;1.10;;;;;;;;;;4983717;28;20054;-79
2024/01/22 10:33:13;;;;;;;2.08;1.40;;;;;;;;;;4967748;28;20054;-79
2024/01/22 10:35:42;;;;;;;1.17;0.85;;;;;;;;;;4979040;28;20061;-78
2024/01/22 10:38:16;;;;;;;1.05;0.80;;;;;;;;;;5001585;28;20062;-79
2024/01/22 10:40:45;;;;;;;1.35;0.60;;;;;;;;;;4983257;28;20072;-79
2024/01/22 10:43:28;;;;;;;1.73;0.80;;;;;;;;;;4999343;28;20046;-79
2024/01/22 10:45:58;;;;;;;3.08;0.57;;;;;;;;;;4998511;28;20082;-79
2024/01/22 10:48:28;;;;;;;5.57;0.75;;;;;;;;;;4980846;28;20086;-82
2024/01/22 10:51:12;;;;;;;1.23;0.43;;;;;;;;;;4980255;28;20054;-82
2024/01/22 10:53:40;;;;;;;1.75;0.50;;;;;;;;;;4985422;28;20423;-86
2024/01/22 10:56:18;;;;;;;0.98;0.45;;;;;;;;;;4978446;28;20601;-78
2024/01/22 10:58:46;;;;;;;0.65;0.43;;;;;;;;;;4996437;28;20054;-79
2024/01/22 11:01:18;;;;;;;0.50;0.50;;;;;;;;;;4965449;28;20082;-79
2024/01/22 11:03:54;;;;;;;1.63;0.52;;;;;;;;;;4997806;28;20502;-79
2024/01/22 11:06:27;;;;;;;0.88;0.50;;;;;;;;;;5001558;28;20466;-79
2024/01/22 11:08:55;;;;;;;0.20;0.20;;;;;;;;;;4983084;28;20532;-80
2024/01/22 11:11:27;;;;;;;1.05;0.60;;;;;;;;;;4986758;28;20048;-79
2024/01/22 11:13:56;;;;;;;0.88;0.38;;;;;;;;;;4972102;28;20106;-79
2024/01/22 11:16:23;;;;;;;0.68;0.52;;;;;;;;;;4983023;28;20058;-80
2024/01/22 11:18:55;;;;;;;0.45;0.40;;;;;;;;;;4980573;28;20050;-80
2024/01/22 11:21:22;;;;;;;0.85;0.40;;;;;;;;;;4973458;28;20054;-78
2024/01/22 11:24:04;;;;;;;0.55;0.43;;;;;;;;;;4984721;28;20054;-78
2024/01/22 11:26:32;;;;;;;0.50;0.32;;;;;;;;;;4972331;28;20064;-77
2024/01/22 11:29:09;;;;;;;1.30;0.43;;;;;;;;;;4975899;28;20054;-77
2024/01/22 11:31:37;;;;;;;0.30;0.30;;;;;;;;;;4961451;28;20148;-80
2024/01/22 11:34:04;;;;;;;1.13;0.77;;;;;;;;;;4978242;28;20056;-78
2024/01/22 11:36:53;;;;;;;0.50;0.43;;;;;;;;;;5010222;28;20050;-79
2024/01/22 11:39:32;;;;;;;0.75;0.50;;;;;;;;;;4979300;28;20050;-79
2024/01/22 11:42:27;;;;;;;9.95;3.30;;;;;;;;;;4992792;28;20485;-78
2024/01/22 11:44:55;;;;;;;2.60;1.42;;;;;;;;;;4960268;28;20101;-78
2024/01/22 11:47:23;;;;;;;0.70;0.70;;;;;;;;;;4975450;28;20518;-77
2024/01/22 11:49:59;;;;;;;2.85;2.35;;;;;;;;;;4992008;28;20054;-80
2024/01/22 11:52:27;;;;;;;1.10;1.00;;;;;;;;;;4968645;28;20057;-80
2024/01/22 11:55:03;;;;;;;1.23;0.90;;;;;;;;;;4996725;28;20433;-79
2024/01/22 11:57:32;;;;;;;1.17;0.90;;;;;;;;;;4966166;28;20065;-79
2024/01/22 12:00:09;;;;;;;1.48;0.88;;;;;;;;;;4997684;28;20077;-80
2024/01/22 12:02:41;;;;;;;1.73;0.70;;;;;;;;;;4982590;28;20116;-79
2024/01/22 12:05:12;;;;;;;1.63;0.90;;;;;;;;;;5001481;28;20061;-80
2024/01/22 12:07:44;;;;;;;1.30;0.50;;;;;;;;;;4990173;28;20065;-80
2024/01/22 12:10:25;;;;;;;1.45;0.88;;;;;;;;;;5003780;28;20066;-79
2024/01/22 12:13:01;;;;;;;1.88;0.50;;;;;;;;;;5001364;28;20055;-79
2024/01/22 12:15:30;;;;;;;0.43;0.40;;;;;;;;;;4969245;28;20047;-79
2024/01/22 12:17:59;;;;;;;1.42;1.02;;;;;;;;;;4987504;28;20137;-79
2024/01/22 12:20:26;;;;;;;1.30;0.45;;;;;;;;;;4999368;28;20054;-78
2024/01/22 12:23:01;;;;;;;0.60;0.30;;;;;;;;;;4991734;28;20085;-78
2024/01/22 12:25:36;;;;;;;2.45;0.40;;;;;;;;;;5004654;28;20050;-80
2024/01/22 12:28:13;;;;;;;1.48;0.30;;;;;;;;;;5005409;28;20050;-80
2024/01/22 12:30:43;;;;;;;2.88;0.52;;;;;;;;;;4985675;28;20078;-79
2024/01/22 12:33:20;;;;;;;0.57;0.57;;;;;;;;;;5003119;28;20065;-79
2024/01/22 12:35:51;;;;;;;1.25;0.50;;;;;;;;;;4982932;28;20142;-79
2024/01/22 12:38:20;;;;;;;1.27;0.30;;;;;;;;;;5000134;28;20050;-79
2024/01/22 12:40:57;;;;;;;1.15;0.38;;;;;;;;;;4993776;28;20055;-79
2024/01/22 12:43:25;;;;;;;1.65;0.70;;;;;;;;;;4990699;28;20470;-80
2024/01/22 12:46:06;;;;;;;0.43;0.43;;;;;;;;;;5008385;28;20062;-79
2024/01/22 12:48:34;;;;;;;0.38;0.32;;;;;;;;;;5001414;28;20118;-80
2024/01/22 12:51:10;;;;;;;1.08;0.40;;;;;;;;;;5007154;28;20086;-83
2024/01/22 12:53:39;;;;;;;0.40;0.40;;;;;;;;;;5008344;28;20053;-81
2024/01/22 12:56:07;;;;;;;0.88;0.50;;;;;;;;;;4989950;28;20141;-80
2024/01/22 12:58:38;;;;;;;0.77;0.60;;;;;;;;;;4984745;28;20070;-80
2024/01/22 13:01:06;;;;;;;1.30;0.40;;;;;;;;;;5021406;28;20050;-81
2024/01/22 13:03:33;;;;;;;0.50;0.35;;;;;;;;;;5007589;28;20545;-80
2024/01/22 13:06:00;;;;;;;2.28;0.60;;;;;;;;;;4991408;28;20061;-80
2024/01/22 13:08:27;;;;;;;4.63;1.05;;;;;;;;;;4974286;28;20050;-81
2024/01/22 13:10:57;;;;;;;1.23;0.60;;;;;;;;;;4988482;28;20053;-81
2024/01/22 13:13:25;;;;;;;0.55;0.35;;;;;;;;;;4988125;28;20046;-80
2024/01/22 13:15:52;;;;;;;5.78;1.30;;;;;;;;;;5005273;28;20058;-80
2024/01/22 13:18:38;;;;;;;0.68;0.30;;;;;;;;;;4992592;28;20042;-80
2024/01/22 13:21:07;;;;;;;1.08;0.55;;;;;;;;;;5003482;28;20077;-81
2024/01/22 13:23:34;;;;;;;4.25;1.38;;;;;;;;;;5002244;28;20124;-81
2024/01/22 13:26:01;;;;;;;2.35;1.30;;;;;;;;;;5005003;28;20093;-81
2024/01/22 13:28:29;;;;;;;4.78;1.98;;;;;;;;;;5005802;28;20149;-81
2024/01/22 13:30:55;;;;;;;6.38;2.92;;;;;;;;;;5007544;28;20121;-81
2024/01/22 13:33:22;;;;;;;6.50;3.05;;;;;;;;;;5005218;28;20078;-80
2024/01/22 13:35:50;;;;;;;6.45;3.15;;;;;;;;;;5003631;28;20053;-81
2024/01/22 13:38:17;;;;;;;1.75;1.15;;;;;;;;;;5007321;28;20073;-80
2024/01/22 13:40:44;;;;;;;1.17;0.50;;;;;;;;;;5020695;28;20066;-78
2024/01/22 13:43:11;;;;;;;1.00;0.70;;;;;;;;;;4996545;28;20467;-84
2024/01/22 13:45:38;;;;;;;1.15;0.68;;;;;;;;;;4994047;28;20059;-83
2024/01/22 13:48:06;;;;;;;0.95;0.40;;;;;;;;;;4984326;28;20513;-80
2024/01/22 13:50:34;;;;;;;0.45;0.30;;;;;;;;;;5002352;28;20046;-84
2024/01/22 13:53:01;;;;;;;0.75;0.40;;;;;;;;;;4999428;28;20054;-79
2024/01/22 13:55:34;;;;;;;0.43;0.30;;;;;;;;;;4997642;28;20065;-78
2024/01/22 13:58:02;;;;;;;0.57;0.50;;;;;;;;;;4983295;28;20062;-81
2024/01/22 14:00:32;;;;;;;0.55;0.20;;;;;;;;;;4981880;28;20046;-78
2024/01/22 14:03:00;;;;;;;0.60;0.55;;;;;;;;;;5016659;28;20046;-77
2024/01/22 14:05:27;;;;;;;1.05;0.52;;;;;;;;;;4967605;28;20109;-79
2024/01/22 14:07:53;;;;;;;0.50;0.50;;;;;;;;;;4987660;28;20150;-81
2024/01/22 14:10:20;;;;;;;1.13;0.77;;;;;;;;;;4993436;28;20070;-78
2024/01/22 14:12:47;;;;;;;1.33;1.02;;;;;;;;;;5013467;28;20077;-79
2024/01/22 14:15:14;;;;;;;1.45;0.68;;;;;;;;;;4980859;28;20446;-78
2024/01/22 14:17:41;;;;;;;2.22;1.50;;;;;;;;;;4998687;28;20082;-79
2024/01/22 14:20:09;;;;;;;0.93;0.75;;;;;;;;;;4995157;28;20061;-78
2024/01/22 14:22:38;;;;;;;0.75;0.70;;;;;;;;;;4984248;28;20050;-78
2024/01/22 14:25:10;;;;;;;1.20;0.90;;;;;;;;;;5000881;28;20050;-78
2024/01/22 14:27:37;;;;;;;1.20;0.75;;;;;;;;;;4996991;28;20078;-78
2024/01/22 14:30:05;;;;;;;1.27;0.52;;;;;;;;;;4965743;28;20510;-78
2024/01/22 14:32:32;;;;;;;0.80;0.60;;;;;;;;;;4995217;28;20058;-79
2024/01/22 14:35:01;;;;;;;0.55;0.32;;;;;;;;;;4993600;28;20049;-79
2024/01/22 14:37:28;;;;;;;0.43;0.43;;;;;;;;;;4991033;28;20444;-78
2024/01/22 14:39:56;;;;;;;0.38;0.25;;;;;;;;;;4989605;28;20094;-78
2024/01/22 14:42:24;;;;;;;0.73;0.52;;;;;;;;;;4981852;28;20078;-78
2024/01/22 14:44:51;;;;;;;0.40;0.30;;;;;;;;;;4985911;28;20058;-78
2024/01/22 14:47:18;;;;;;;1.00;0.40;;;;;;;;;;4985993;28;20051;-78
2024/01/22 14:49:45;;;;;;;0.98;0.43;;;;;;;;;;4994462;28;20105;-79